»·PEaware :: N27JP KSNA-KSNA

N27JP :: KSNA-KSNA

FLIGHT INFORMATION

Flight Status: Arrived
Operator: Privately registered:
United States
More flights under this callsign
Pilot: Weston J. (31543)
Aircraft: CESSNA 172 SKYHAWK
(C172)
More flights by this aircraft type
Origin: KSNA John Wayne-Orange Co
United States
Destination: KSNA John Wayne-Orange Co
United States
More flights between these airports :: More routes between these airports
Route: SLI
File this flight plan on PilotEdge
Remarks: ILS practice on 20R
Altitude:
(Current/Filed)
3,000ft
Speed:
(Current/Filed)
110kts
Departed: 28-Nov-20 01:39 PM
Arrived: 28-Nov-20 02:02 PM
Distance/Time
Traveled:
6774nm/0:23
Distance/Time
To Go:
Arrived

Flight Plot

Page will automatically refresh every two minutes.


Map Options




Map Legend


Flown Route
Filed Route
Departure Airport
Arrival Airport
Navaid (VOR, NDB)
Fix

Horizontal Profiles

Position Reports

Time Latitude Longitude Heading Altitude Ground
Speed
28-Nov-20 13:04 33.671940 -117.873723 240 57ft 0kts
28-Nov-20 13:06 33.671940 -117.873723 240 57ft 0kts
28-Nov-20 13:07 33.671940 -117.873723 240 57ft 0kts
28-Nov-20 13:08 33.671940 -117.873723 240 57ft 0kts
28-Nov-20 13:09 33.671940 -117.873723 240 57ft 0kts
28-Nov-20 13:10 33.671940 -117.873723 240 57ft 0kts
28-Nov-20 13:11 33.671940 -117.873723 240 57ft 0kts
28-Nov-20 13:12 33.671940 -117.873723 240 57ft 0kts
28-Nov-20 13:13 33.671940 -117.873723 240 57ft 0kts
28-Nov-20 13:14 33.671940 -117.873723 240 57ft 0kts
28-Nov-20 13:15 33.671940 -117.873723 240 57ft 0kts
28-Nov-20 13:16 33.671940 -117.873723 240 57ft 0kts
28-Nov-20 13:17 33.671940 -117.873723 240 57ft 0kts
28-Nov-20 13:18 33.671940 -117.873723 240 57ft 0kts
28-Nov-20 13:19 33.671940 -117.873723 240 57ft 0kts
28-Nov-20 13:20 33.671940 -117.873723 240 57ft 0kts
28-Nov-20 13:21 33.671940 -117.873723 240 57ft 0kts
28-Nov-20 13:22 33.671940 -117.873723 240 57ft 0kts
28-Nov-20 13:23 33.671940 -117.873723 240 57ft 0kts
28-Nov-20 13:24 33.671940 -117.873723 240 57ft 0kts
28-Nov-20 13:25 33.671940 -117.873723 240 57ft 0kts
28-Nov-20 13:26 33.671940 -117.873723 240 57ft 0kts
28-Nov-20 13:27 33.671940 -117.873723 240 57ft 0kts
28-Nov-20 13:28 33.671940 -117.873723 240 57ft 0kts
28-Nov-20 13:29 33.671670 -117.873402 124 57ft 7kts
28-Nov-20 13:30 33.674024 -117.871406 27 55ft 14kts
28-Nov-20 13:31 33.677124 -117.869442 27 52ft 10kts
28-Nov-20 13:33 33.680207 -117.867673 27 45ft 10kts
28-Nov-20 13:34 33.681087 -117.866563 115 43ft 0kts
28-Nov-20 13:35 33.681087 -117.866563 115 43ft 0kts
28-Nov-20 13:36 33.681087 -117.866563 115 43ft 0kts
28-Nov-20 13:37 33.681087 -117.866563 115 43ft 0kts
28-Nov-20 13:38 33.681087 -117.866563 115 43ft 0kts
28-Nov-20 13:39 33.668255 -117.873623 204 272ft 95kts
28-Nov-20 13:40 33.652934 -117.899503 242 1111ft 101kts
28-Nov-20 13:41 33.638830 -117.930320 241 1789ft 108kts
28-Nov-20 13:42 33.626345 -117.963922 292 2315ft 107kts
28-Nov-20 13:43 33.653178 -117.966002 14 2795ft 110kts
28-Nov-20 13:44 33.683470 -117.956676 15 3006ft 116kts
28-Nov-20 13:45 33.716166 -117.948691 9 3001ft 120kts
28-Nov-20 13:46 33.749059 -117.941539 12 3003ft 120kts
28-Nov-20 13:47 33.781568 -117.932256 13 3025ft 119kts
28-Nov-20 13:47 33.808119 -117.923144 25 3011ft 120kts
28-Nov-20 13:49 33.840211 -117.898821 34 3012ft 119kts
28-Nov-20 13:49 33.863112 -117.880200 32 3015ft 118kts
28-Nov-20 13:51 33.895314 -117.854919 40 3019ft 118kts
28-Nov-20 13:51 33.904609 -117.824141 79 3021ft 119kts
28-Nov-20 13:52 33.907955 -117.784374 83 3029ft 116kts
28-Nov-20 13:53 33.908461 -117.745751 125 3055ft 122kts
28-Nov-20 13:54 33.875009 -117.748047 200 3052ft 129kts
28-Nov-20 13:55 33.841687 -117.765410 203 3043ft 130kts
28-Nov-20 13:56 33.808477 -117.784372 209 2850ft 140kts
28-Nov-20 13:57 33.777665 -117.804104 206 2170ft 121kts
28-Nov-20 13:58 33.747817 -117.823217 206 1526ft 122kts
28-Nov-20 13:59 33.717715 -117.842278 206 872ft 122kts
28-Nov-20 14:00 33.690988 -117.859254 206 287ft 81kts
28-Nov-20 14:01 33.675799 -117.869284 269 56ft 14kts
28-Nov-20 14:02 33.676466 -117.870950 297 53ft 0kts
28-Nov-20 14:03 0.000000 0.000000 0 0ft 0kts

Navigation Log

Ident Type
Flight plan parsing failed, navigation log unavailable